Time;durP1;ratioP1;P1;durP2;ratioP2;P2;SDS_P1;SDS_P2;PMS_P1;PMS_P2;Temp;Humidity;BMP_temperature;BMP_pressure;BME280_temperature;BME280_humidity;BME280_pressure;Samples;Min_cycle;Max_cycle;Signal;HPM_P1;HPM_P2
2024/01/07 00:01:47;;;;;;;20.40;6.65;;;7.90;99.90;;;;;;5106619;28;20020;-49
2024/01/07 00:04:13;;;;;;;20.60;6.80;;;7.80;99.90;;;;;;5106654;28;20494;-49
2024/01/07 00:06:38;;;;;;;18.65;6.60;;;7.90;99.90;;;;;;5122355;28;20016;-49
2024/01/07 00:09:04;;;;;;;25.17;7.60;;;7.80;99.90;;;;;;5106554;28;20491;-49
2024/01/07 00:11:29;;;;;;;19.50;6.75;;;7.90;99.90;;;;;;5106772;28;20027;-49
2024/01/07 00:13:55;;;;;;;13.52;5.68;;;7.80;99.90;;;;;;5106632;28;20036;-49
2024/01/07 00:16:20;;;;;;;10.20;5.80;;;7.80;99.90;;;;;;5106681;28;20024;-49
2024/01/07 00:18:46;;;;;;;19.05;6.50;;;7.80;99.90;;;;;;5106580;28;20028;-49
2024/01/07 00:21:11;;;;;;;16.40;5.65;;;7.80;99.90;;;;;;5106480;28;20028;-50
2024/01/07 00:23:37;;;;;;;13.18;5.80;;;7.80;99.90;;;;;;5106626;28;20117;-50
2024/01/07 00:26:03;;;;;;;15.68;5.80;;;7.80;99.90;;;;;;5106410;28;20028;-50
2024/01/07 00:28:29;;;;;;;13.55;6.55;;;7.80;99.90;;;;;;5106375;28;20058;-49
2024/01/07 00:30:54;;;;;;;14.93;5.30;;;7.80;99.90;;;;;;5106527;28;20020;-49
2024/01/07 00:33:20;;;;;;;17.25;6.32;;;7.80;99.90;;;;;;5106486;28;20032;-49
2024/01/07 00:35:45;;;;;;;16.52;5.93;;;7.80;99.90;;;;;;5106665;28;20032;-49
2024/01/07 00:38:11;;;;;;;12.98;6.07;;;7.80;99.90;;;;;;5107448;28;20036;-49
2024/01/07 00:40:38;;;;;;;16.50;5.70;;;7.80;99.90;;;;;;5106228;28;20051;-49
2024/01/07 00:43:04;;;;;;;18.63;5.93;;;7.70;99.90;;;;;;5106309;28;20078;-50
2024/01/07 00:45:30;;;;;;;13.68;5.60;;;7.70;99.90;;;;;;5106338;28;20020;-49
2024/01/07 00:47:55;;;;;;;17.02;5.90;;;7.70;99.90;;;;;;5106139;28;20365;-49
2024/01/07 00:50:21;;;;;;;12.50;5.78;;;7.70;99.90;;;;;;5106221;28;20016;-49
2024/01/07 00:52:46;;;;;;;20.27;6.15;;;7.70;99.90;;;;;;5106168;28;20472;-49
2024/01/07 00:55:12;;;;;;;12.15;5.47;;;7.70;99.90;;;;;;5106291;28;20024;-50
2024/01/07 00:57:38;;;;;;;10.30;5.03;;;7.70;99.90;;;;;;5106137;28;20479;-49
2024/01/07 01:00:06;;;;;;;12.02;5.63;;;7.70;99.90;;;;;;5106204;28;20024;-50
2024/01/07 01:02:32;;;;;;;14.38;5.28;;;7.70;99.90;;;;;;5106062;28;20032;-50
2024/01/07 01:04:58;;;;;;;15.30;5.78;;;7.70;99.90;;;;;;5106466;28;20020;-49
2024/01/07 01:07:23;;;;;;;15.32;4.97;;;7.70;99.90;;;;;;5106203;28;20024;-49
2024/01/07 01:09:49;;;;;;;8.77;4.45;;;7.70;99.90;;;;;;5104861;28;20029;-50
2024/01/07 01:12:14;;;;;;;14.32;5.15;;;7.70;99.90;;;;;;5105917;28;20468;-49
2024/01/07 01:14:41;;;;;;;11.75;5.30;;;7.70;99.90;;;;;;5106080;28;20452;-50
2024/01/07 01:17:06;;;;;;;14.63;6.20;;;7.70;99.90;;;;;;5105989;28;20024;-49
2024/01/07 01:19:32;;;;;;;12.88;5.15;;;7.70;99.90;;;;;;5106075;28;20031;-50
2024/01/07 01:21:57;;;;;;;13.57;4.97;;;7.70;99.90;;;;;;5105944;28;20045;-50
2024/01/07 01:24:23;;;;;;;12.73;5.32;;;7.70;99.90;;;;;;5106041;28;20043;-50
2024/01/07 01:26:48;;;;;;;13.85;5.97;;;7.60;99.90;;;;;;5105773;28;20020;-49
2024/01/07 01:29:14;;;;;;;11.68;5.43;;;7.60;99.90;;;;;;5105931;28;20040;-49
2024/01/07 01:31:39;;;;;;;12.82;4.90;;;7.70;99.90;;;;;;5105877;28;20457;-49
2024/01/07 01:34:05;;;;;;;13.25;5.03;;;7.70;99.90;;;;;;5105650;28;20028;-49
2024/01/07 01:36:31;;;;;;;9.88;5.25;;;7.70;99.90;;;;;;5105747;28;20020;-49
2024/01/07 01:38:57;;;;;;;9.43;5.00;;;7.70;99.90;;;;;;5105892;28;20062;-49
2024/01/07 01:41:22;;;;;;;13.48;5.15;;;7.70;99.90;;;;;;5108615;28;20028;-49
2024/01/07 01:43:48;;;;;;;9.63;4.95;;;7.70;99.90;;;;;;5109383;28;20122;-50
2024/01/07 01:46:13;;;;;;;14.77;4.97;;;7.60;99.90;;;;;;5109399;28;20020;-49
2024/01/07 01:48:39;;;;;;;9.13;4.88;;;7.60;99.90;;;;;;5109117;28;20032;-50
2024/01/07 01:51:05;;;;;;;7.78;4.55;;;7.60;99.90;;;;;;5125129;28;20046;-50
2024/01/07 01:53:30;;;;;;;12.35;4.43;;;7.60;99.90;;;;;;5125178;28;20046;-49
2024/01/07 01:55:57;;;;;;;10.80;4.43;;;7.60;99.90;;;;;;5107940;28;20020;-49
2024/01/07 01:58:23;;;;;;;10.65;5.00;;;7.60;99.90;;;;;;5109227;28;20036;-49
2024/01/07 02:00:49;;;;;;;13.95;4.95;;;7.60;99.90;;;;;;5125065;28;20023;-50
2024/01/07 02:03:15;;;;;;;11.70;4.53;;;7.60;99.90;;;;;;5109074;28;20039;-49
2024/01/07 02:05:40;;;;;;;10.90;4.63;;;7.60;99.90;;;;;;5108957;28;20105;-49
2024/01/07 02:08:07;;;;;;;8.38;4.20;;;7.60;99.90;;;;;;5108928;28;20423;-50
2024/01/07 02:10:36;;;;;;;9.98;4.55;;;7.60;99.90;;;;;;5108928;28;20027;-50
2024/01/07 02:13:04;;;;;;;10.05;4.60;;;7.60;99.90;;;;;;5108831;28;20034;-49
2024/01/07 02:15:30;;;;;;;11.38;5.13;;;7.60;99.90;;;;;;5108839;28;20026;-49
2024/01/07 02:17:56;;;;;;;9.05;4.18;;;7.60;99.90;;;;;;5108654;28;20071;-49
2024/01/07 02:20:22;;;;;;;8.05;4.10;;;7.60;99.90;;;;;;5124348;28;20032;-49
2024/01/07 02:22:47;;;;;;;10.52;4.50;;;7.60;99.90;;;;;;5108477;28;20488;-50
2024/01/07 02:25:13;;;;;;;8.48;4.15;;;7.60;99.90;;;;;;5108532;28;20032;-49
2024/01/07 02:27:38;;;;;;;5.75;3.88;;;7.60;99.90;;;;;;5108413;28;20031;-49
2024/01/07 02:30:05;;;;;;;11.68;4.70;;;7.50;99.90;;;;;;5108514;28;20051;-50
2024/01/07 02:32:34;;;;;;;7.95;4.35;;;7.50;99.90;;;;;;5108321;28;20027;-49
2024/01/07 02:35:00;;;;;;;7.30;4.57;;;7.50;99.90;;;;;;5108064;28;20032;-49
2024/01/07 02:37:25;;;;;;;6.60;4.10;;;7.50;99.90;;;;;;5124311;28;20028;-50
2024/01/07 02:39:51;;;;;;;9.38;4.15;;;7.50;99.90;;;;;;5108202;28;20036;-49
2024/01/07 02:42:16;;;;;;;9.38;4.47;;;7.50;99.90;;;;;;5108247;28;20027;-50
2024/01/07 02:44:42;;;;;;;8.02;4.55;;;7.50;99.90;;;;;;5108419;28;20115;-49
2024/01/07 02:47:07;;;;;;;11.05;3.70;;;7.50;99.90;;;;;;5110364;28;20020;-49
2024/01/07 02:49:33;;;;;;;8.25;3.67;;;7.50;99.90;;;;;;5108283;28;20050;-49
2024/01/07 02:51:59;;;;;;;6.13;3.78;;;7.50;99.90;;;;;;5106897;28;20028;-49
2024/01/07 02:54:24;;;;;;;7.68;4.20;;;7.50;99.90;;;;;;5107812;28;20028;-50
2024/01/07 02:56:50;;;;;;;9.40;3.97;;;7.50;99.90;;;;;;5107961;28;20024;-49
2024/01/07 02:59:15;;;;;;;8.27;4.43;;;7.50;99.90;;;;;;5107706;28;20122;-49
2024/01/07 03:01:42;;;;;;;10.00;4.00;;;7.50;99.90;;;;;;5107645;28;20040;-49
2024/01/07 03:04:09;;;;;;;5.85;4.03;;;7.50;99.90;;;;;;5110540;28;20048;-49
2024/01/07 03:06:35;;;;;;;9.10;3.88;;;7.50;99.90;;;;;;5123814;28;20053;-49
2024/01/07 03:09:00;;;;;;;6.35;3.95;;;7.50;99.90;;;;;;5107999;28;20059;-50
2024/01/07 03:11:26;;;;;;;8.48;4.50;;;7.50;99.90;;;;;;5107757;28;20016;-50
2024/01/07 03:13:51;;;;;;;10.52;4.07;;;7.50;99.90;;;;;;5107698;28;20035;-50
2024/01/07 03:16:24;;;;;;;7.57;4.00;;;7.50;99.90;;;;;;5107603;28;20024;-49
2024/01/07 03:18:49;;;;;;;6.82;3.83;;;7.50;99.90;;;;;;5107699;28;20036;-50
2024/01/07 03:21:22;;;;;;;6.20;3.80;;;7.50;99.90;;;;;;5107563;28;20484;-50
2024/01/07 03:23:48;;;;;;;4.55;3.38;;;7.50;99.90;;;;;;5107488;28;20036;-50
2024/01/07 03:26:14;;;;;;;7.22;3.92;;;7.50;99.90;;;;;;5107488;28;20047;-49
2024/01/07 03:28:39;;;;;;;6.95;4.00;;;7.50;99.90;;;;;;5107402;28;20035;-50
2024/01/07 03:31:08;;;;;;;6.75;4.22;;;7.50;99.90;;;;;;5107318;28;20024;-49
2024/01/07 03:33:33;;;;;;;8.07;4.00;;;7.40;99.90;;;;;;5107433;28;20115;-49
2024/01/07 03:35:59;;;;;;;5.65;3.75;;;7.50;99.90;;;;;;5107137;28;20053;-50
2024/01/07 03:38:25;;;;;;;4.57;3.55;;;7.40;99.90;;;;;;5107332;28;20032;-49
2024/01/07 03:40:50;;;;;;;5.22;3.20;;;7.40;99.90;;;;;;5107243;28;20068;-49
2024/01/07 03:43:16;;;;;;;8.18;3.70;;;7.40;99.90;;;;;;5107091;28;20059;-50
2024/01/07 03:45:43;;;;;;;7.22;3.63;;;7.40;99.90;;;;;;5106812;28;20039;-49
2024/01/07 03:48:08;;;;;;;9.70;3.92;;;7.40;99.90;;;;;;5107030;28;20036;-49
2024/01/07 03:50:34;;;;;;;7.57;4.00;;;7.40;99.90;;;;;;5106904;28;20016;-49
2024/01/07 03:53:00;;;;;;;7.75;3.50;;;7.40;99.90;;;;;;5107262;28;20028;-50
2024/01/07 03:55:25;;;;;;;10.60;4.20;;;7.40;99.90;;;;;;5106733;28;20154;-50
2024/01/07 03:57:51;;;;;;;7.05;3.78;;;7.40;99.90;;;;;;5106616;28;20036;-49
2024/01/07 04:00:16;;;;;;;7.43;4.30;;;7.40;99.90;;;;;;5106957;28;20380;-50
2024/01/07 04:02:43;;;;;;;6.47;3.78;;;7.40;99.90;;;;;;5106479;28;20028;-49
2024/01/07 04:05:09;;;;;;;5.68;3.80;;;7.40;99.90;;;;;;5106889;28;20031;-49
2024/01/07 04:07:35;;;;;;;5.40;3.75;;;7.40;99.90;;;;;;5106656;28;20043;-50
2024/01/07 04:10:00;;;;;;;6.50;3.75;;;7.40;99.90;;;;;;5106509;28;20020;-49
2024/01/07 04:12:26;;;;;;;6.03;3.55;;;7.40;99.90;;;;;;5106611;28;20029;-50
2024/01/07 04:14:51;;;;;;;6.25;3.80;;;7.40;99.90;;;;;;5106317;28;20032;-50
2024/01/07 04:17:17;;;;;;;5.97;3.50;;;7.40;99.90;;;;;;5106393;28;20017;-49
2024/01/07 04:19:43;;;;;;;7.75;3.70;;;7.40;99.90;;;;;;5106668;28;20059;-49
2024/01/07 04:22:08;;;;;;;4.32;3.72;;;7.40;99.90;;;;;;5106577;28;20095;-50
2024/01/07 04:24:34;;;;;;;8.88;3.30;;;7.40;99.90;;;;;;5106680;28;20035;-49
2024/01/07 04:26:59;;;;;;;4.82;3.47;;;7.40;99.90;;;;;;5106378;28;20021;-50
2024/01/07 04:29:25;;;;;;;5.88;3.47;;;7.30;99.90;;;;;;5106555;28;20036;-50
2024/01/07 04:31:50;;;;;;;4.32;3.88;;;7.40;99.90;;;;;;5106455;28;20039;-50
2024/01/07 04:34:16;;;;;;;4.93;3.65;;;7.30;99.90;;;;;;5121923;28;20032;-50
2024/01/07 04:36:41;;;;;;;6.75;3.78;;;7.30;99.90;;;;;;5106396;28;20020;-50
2024/01/07 04:39:08;;;;;;;7.55;3.88;;;7.30;99.90;;;;;;5106501;28;20035;-50
2024/01/07 04:41:33;;;;;;;6.35;3.50;;;7.30;99.90;;;;;;5106401;28;20024;-50
2024/01/07 04:43:59;;;;;;;7.60;3.78;;;7.30;99.90;;;;;;5106412;28;20491;-49
2024/01/07 04:46:24;;;;;;;5.20;3.25;;;7.30;99.90;;;;;;5106142;28;20024;-49
2024/01/07 04:48:50;;;;;;;4.88;3.33;;;7.30;99.90;;;;;;5087918;28;20046;-49
2024/01/07 04:51:15;;;;;;;3.85;3.35;;;7.20;99.90;;;;;;5106249;28;20020;-49
2024/01/07 04:53:41;;;;;;;6.80;3.42;;;7.30;99.90;;;;;;5106182;28;20547;-49
2024/01/07 04:56:07;;;;;;;4.13;3.53;;;7.30;99.90;;;;;;5106282;28;20099;-49
2024/01/07 04:58:32;;;;;;;4.28;3.00;;;7.20;99.90;;;;;;5106291;28;20028;-49
2024/01/07 05:00:58;;;;;;;5.50;3.08;;;7.20;99.90;;;;;;5105989;28;20073;-49
2024/01/07 05:03:23;;;;;;;6.50;3.40;;;7.30;99.90;;;;;;5106042;28;20028;-50
2024/01/07 05:05:49;;;;;;;5.43;3.53;;;7.30;99.90;;;;;;5105602;28;20034;-50
2024/01/07 05:08:14;;;;;;;3.78;3.33;;;7.30;99.90;;;;;;5106767;28;20047;-50
2024/01/07 05:10:40;;;;;;;4.53;3.60;;;7.30;99.90;;;;;;5106048;28;20076;-49
2024/01/07 05:13:06;;;;;;;7.28;3.60;;;7.30;99.90;;;;;;5106012;28;20033;-50
2024/01/07 05:15:32;;;;;;;6.28;3.45;;;7.30;99.90;;;;;;5089463;28;20020;-49
2024/01/07 05:17:58;;;;;;;5.68;3.40;;;7.30;99.90;;;;;;5109835;28;20032;-50
2024/01/07 05:20:24;;;;;;;7.93;3.28;;;7.30;99.90;;;;;;5109762;28;20028;-49
2024/01/07 05:22:49;;;;;;;3.92;3.40;;;7.20;99.90;;;;;;5091539;28;20031;-49
2024/01/07 05:25:15;;;;;;;5.97;3.25;;;7.20;99.90;;;;;;5109855;28;20050;-49
2024/01/07 05:27:40;;;;;;;6.65;3.80;;;7.20;99.90;;;;;;5109718;28;20023;-50
2024/01/07 05:30:07;;;;;;;3.97;3.40;;;7.20;99.90;;;;;;5109787;28;20017;-49
2024/01/07 05:32:33;;;;;;;5.78;3.38;;;7.30;99.90;;;;;;5109601;28;20036;-49
2024/01/07 05:34:59;;;;;;;6.75;3.70;;;7.20;99.90;;;;;;5109482;28;20028;-49
2024/01/07 05:37:24;;;;;;;4.90;3.20;;;7.20;99.90;;;;;;5109377;28;20055;-49
2024/01/07 05:39:50;;;;;;;5.05;3.40;;;7.20;99.90;;;;;;5109557;28;20054;-49
2024/01/07 05:42:16;;;;;;;6.40;3.60;;;7.20;99.90;;;;;;5109248;28;20032;-49
2024/01/07 05:44:42;;;;;;;5.18;3.92;;;7.20;99.90;;;;;;5109453;28;20043;-50
2024/01/07 05:47:07;;;;;;;4.75;3.22;;;7.20;99.90;;;;;;5090842;28;20054;-50
2024/01/07 05:49:33;;;;;;;4.28;3.20;;;7.20;99.90;;;;;;5109234;28;20038;-49
2024/01/07 05:51:59;;;;;;;6.45;3.50;;;7.20;99.90;;;;;;5125049;28;20024;-49
2024/01/07 05:54:24;;;;;;;4.05;3.05;;;7.30;99.90;;;;;;5109050;28;20475;-49
2024/01/07 05:56:50;;;;;;;5.60;3.17;;;7.20;99.90;;;;;;5108963;28;20024;-49
2024/01/07 05:59:16;;;;;;;4.78;3.40;;;7.20;99.90;;;;;;5109194;28;20399;-50
2024/01/07 06:01:41;;;;;;;4.47;3.40;;;7.20;99.90;;;;;;5109045;28;20035;-50
2024/01/07 06:04:07;;;;;;;4.03;3.40;;;7.30;99.90;;;;;;5108983;28;20036;-50
2024/01/07 06:06:33;;;;;;;3.85;3.45;;;7.20;99.90;;;;;;5124879;28;20020;-50
2024/01/07 06:08:59;;;;;;;4.97;3.28;;;7.20;99.90;;;;;;5108868;28;20592;-50
2024/01/07 06:11:24;;;;;;;5.90;3.72;;;7.20;99.90;;;;;;5108919;28;20045;-50
2024/01/07 06:13:50;;;;;;;5.90;3.67;;;7.20;99.90;;;;;;5108931;28;20096;-50
2024/01/07 06:16:16;;;;;;;3.75;3.45;;;7.30;99.90;;;;;;5108846;28;20021;-49
2024/01/07 06:18:41;;;;;;;6.35;3.75;;;7.30;99.90;;;;;;5108473;28;20036;-50
2024/01/07 06:21:07;;;;;;;10.35;4.13;;;7.30;99.90;;;;;;5108819;28;20024;-50
2024/01/07 06:23:33;;;;;;;15.77;4.15;;;7.20;99.90;;;;;;5108718;28;20064;-50
2024/01/07 06:25:59;;;;;;;19.58;5.25;;;7.30;99.90;;;;;;5124323;28;20020;-50
2024/01/07 06:28:24;;;;;;;51.95;9.55;;;7.20;99.90;;;;;;5108297;28;20039;-50
2024/01/07 06:30:50;;;;;;;33.30;7.05;;;7.30;99.90;;;;;;5108432;28;20031;-50
2024/01/07 06:33:15;;;;;;;55.33;9.00;;;7.30;99.90;;;;;;5108333;28;20044;-50
2024/01/07 06:35:41;;;;;;;33.22;7.07;;;7.30;99.90;;;;;;5108218;28;20488;-50
2024/01/07 06:38:07;;;;;;;29.67;5.75;;;7.30;99.90;;;;;;5108228;28;20032;-50
2024/01/07 06:40:32;;;;;;;37.63;6.82;;;7.30;99.90;;;;;;5108160;28;20036;-49
2024/01/07 06:42:58;;;;;;;28.20;6.60;;;7.30;99.90;;;;;;5108288;28;20033;-50
2024/01/07 06:45:23;;;;;;;30.30;6.18;;;7.30;99.90;;;;;;5108037;28;20028;-49
2024/01/07 06:47:49;;;;;;;32.00;6.60;;;7.30;99.90;;;;;;5108063;28;20036;-50
2024/01/07 06:50:14;;;;;;;140.13;16.83;;;7.30;99.90;;;;;;5108170;28;20077;-50
2024/01/07 06:52:40;;;;;;;242.88;27.05;;;7.30;99.90;;;;;;5107949;28;20029;-50
2024/01/07 06:55:06;;;;;;;131.55;15.10;;;7.30;99.90;;;;;;5108165;28;20021;-50
2024/01/07 06:57:32;;;;;;;207.48;22.27;;;7.30;99.90;;;;;;5107983;28;20028;-50
2024/01/07 06:59:58;;;;;;;76.53;11.93;;;7.30;99.90;;;;;;5107895;28;20028;-49
2024/01/07 07:02:23;;;;;;;65.20;10.43;;;7.30;99.90;;;;;;5107893;28;20031;-49
2024/01/07 07:04:50;;;;;;;61.40;10.60;;;7.30;99.90;;;;;;5107929;28;20035;-50
2024/01/07 07:07:16;;;;;;;98.32;13.00;;;7.40;99.90;;;;;;5107846;28;20483;-50
2024/01/07 07:09:42;;;;;;;242.20;27.48;;;7.30;99.90;;;;;;5108160;28;20040;-49
2024/01/07 07:12:08;;;;;;;532.90;55.33;;;7.40;99.90;;;;;;5107651;28;20030;-50
2024/01/07 07:14:33;;;;;;;490.95;52.40;;;7.30;99.90;;;;;;5107794;28;20032;-50
2024/01/07 07:16:59;;;;;;;318.60;38.08;;;7.40;99.90;;;;;;5107593;28;20027;-49
2024/01/07 07:19:24;;;;;;;325.67;34.58;;;7.40;99.90;;;;;;5123262;28;20379;-50
2024/01/07 07:21:50;;;;;;;316.38;32.53;;;7.40;99.90;;;;;;5123106;28;20020;-49
2024/01/07 07:24:16;;;;;;;242.30;28.85;;;7.40;99.90;;;;;;5107472;28;20438;-49
2024/01/07 07:26:42;;;;;;;233.68;27.42;;;7.40;99.90;;;;;;5123260;28;20063;-50
2024/01/07 07:29:11;;;;;;;224.90;23.88;;;7.40;99.90;;;;;;5107145;28;20365;-49
2024/01/07 07:31:37;;;;;;;213.98;23.92;;;7.40;99.90;;;;;;5107282;28;20028;-49
2024/01/07 07:34:05;;;;;;;207.07;25.55;;;7.40;99.90;;;;;;5107193;28;20035;-50
2024/01/07 07:36:31;;;;;;;187.68;23.95;;;7.40;99.90;;;;;;5107289;28;20184;-49
2024/01/07 07:38:57;;;;;;;204.65;23.58;;;7.40;99.90;;;;;;5106711;28;20028;-58
2024/01/07 07:41:22;;;;;;;210.38;22.77;;;7.40;99.90;;;;;;5107289;28;20024;-58
2024/01/07 07:43:48;;;;;;;209.48;23.23;;;7.40;99.90;;;;;;5108173;28;20057;-58
2024/01/07 07:46:15;;;;;;;155.18;20.33;;;7.40;99.90;;;;;;5106974;28;20031;-58
2024/01/07 07:48:41;;;;;;;139.50;20.35;;;7.40;99.90;;;;;;5107074;28;20042;-58
2024/01/07 07:51:07;;;;;;;184.52;21.90;;;7.40;99.90;;;;;;5107152;28;20099;-58
2024/01/07 07:53:32;;;;;;;154.90;21.98;;;7.40;99.90;;;;;;5106944;28;20028;-58
2024/01/07 07:55:58;;;;;;;160.07;20.63;;;7.40;99.90;;;;;;5107010;28;20027;-58
2024/01/07 07:58:24;;;;;;;156.43;20.50;;;7.40;99.90;;;;;;5106908;28;20035;-58
2024/01/07 08:00:50;;;;;;;169.27;19.13;;;7.40;99.90;;;;;;5106908;28;20050;-58
2024/01/07 08:03:15;;;;;;;162.02;20.38;;;7.40;99.90;;;;;;5106723;28;20095;-58
2024/01/07 08:05:41;;;;;;;151.93;18.40;;;7.40;99.90;;;;;;5106867;28;20062;-58
2024/01/07 08:08:07;;;;;;;160.63;20.73;;;7.40;99.90;;;;;;5106523;28;20032;-58
2024/01/07 08:10:35;;;;;;;154.77;21.00;;;7.40;99.90;;;;;;5106521;28;20050;-58
2024/01/07 08:13:00;;;;;;;140.95;19.50;;;7.40;99.90;;;;;;5106619;28;20036;-58
2024/01/07 08:15:26;;;;;;;120.90;17.50;;;7.30;99.90;;;;;;5106565;28;20020;-58
2024/01/07 08:17:51;;;;;;;134.80;18.52;;;7.30;99.90;;;;;;5106307;28;20078;-58
2024/01/07 08:20:17;;;;;;;136.50;18.00;;;7.30;99.90;;;;;;5122233;28;20031;-58
2024/01/07 08:22:43;;;;;;;147.25;18.75;;;7.30;99.90;;;;;;5106527;28;20058;-58
2024/01/07 08:25:08;;;;;;;122.85;20.48;;;7.30;99.90;;;;;;5106170;28;20034;-58
2024/01/07 08:27:34;;;;;;;130.10;17.63;;;7.30;99.90;;;;;;5106412;28;20031;-58
2024/01/07 08:30:01;;;;;;;134.48;19.25;;;7.30;99.90;;;;;;5106584;28;20025;-58
2024/01/07 08:32:27;;;;;;;135.77;18.20;;;7.30;99.90;;;;;;5106562;28;20028;-58
2024/01/07 08:34:52;;;;;;;116.47;18.13;;;7.30;99.90;;;;;;5106271;28;20039;-58
2024/01/07 08:37:18;;;;;;;129.45;16.60;;;7.30;99.90;;;;;;5106315;28;20030;-57
2024/01/07 08:39:43;;;;;;;100.22;16.33;;;7.30;99.90;;;;;;5106451;28;20055;-58
2024/01/07 08:42:09;;;;;;;94.95;17.25;;;7.30;99.90;;;;;;5106303;28;20020;-58
2024/01/07 08:44:35;;;;;;;103.97;18.25;;;7.30;99.90;;;;;;5106334;28;20044;-58
2024/01/07 08:47:00;;;;;;;109.95;16.70;;;7.30;99.90;;;;;;5105380;28;20026;-58
2024/01/07 08:49:28;;;;;;;116.22;15.85;;;7.30;99.90;;;;;;5107434;28;20447;-57
2024/01/07 08:51:55;;;;;;;74.35;14.70;;;7.30;99.90;;;;;;5089726;28;20024;-58
2024/01/07 08:54:21;;;;;;;100.05;15.85;;;7.30;99.90;;;;;;5114793;28;21206;-58
2024/01/07 08:56:47;;;;;;;91.28;13.95;;;7.30;99.90;;;;;;5110877;28;20024;-57
2024/01/07 08:59:12;;;;;;;99.43;14.25;;;7.30;99.90;;;;;;5108248;28;20096;-58
2024/01/07 09:01:38;;;;;;;77.25;14.18;;;7.30;99.90;;;;;;5107529;28;20026;-58
2024/01/07 09:04:04;;;;;;;93.15;13.45;;;7.30;99.90;;;;;;5122154;28;20028;-58
2024/01/07 09:06:29;;;;;;;80.82;12.10;;;7.30;99.90;;;;;;5128298;28;20027;-58
2024/01/07 09:08:55;;;;;;;71.30;13.93;;;7.30;99.90;;;;;;5127835;28;20036;-58
2024/01/07 09:11:20;;;;;;;78.60;14.27;;;7.30;99.90;;;;;;5123177;28;20387;-58
2024/01/07 09:13:48;;;;;;;78.88;12.75;;;7.30;99.90;;;;;;5108766;28;20077;-58
2024/01/07 09:16:15;;;;;;;71.57;12.13;;;7.30;99.90;;;;;;5118355;28;20051;-58
2024/01/07 09:18:41;;;;;;;67.75;12.10;;;7.30;99.90;;;;;;5130393;28;20086;-58
2024/01/07 09:21:06;;;;;;;71.80;11.23;;;7.40;99.90;;;;;;5111845;28;20024;-58
2024/01/07 09:23:33;;;;;;;67.85;11.60;;;7.30;99.90;;;;;;5108120;28;20035;-58
2024/01/07 09:25:59;;;;;;;74.22;11.57;;;7.40;99.90;;;;;;5107296;28;20464;-58
2024/01/07 09:28:25;;;;;;;64.93;10.70;;;7.40;99.90;;;;;;5107636;28;20087;-58
2024/01/07 09:30:50;;;;;;;74.75;10.95;;;7.40;99.90;;;;;;5107583;28;20020;-58
2024/01/07 09:33:16;;;;;;;67.78;11.80;;;7.40;99.90;;;;;;5106563;28;20024;-58
2024/01/07 09:35:43;;;;;;;58.28;10.30;;;7.40;99.90;;;;;;5118492;28;20038;-58
2024/01/07 09:38:09;;;;;;;65.38;10.77;;;7.40;99.90;;;;;;5106994;28;20040;-58
2024/01/07 09:40:34;;;;;;;69.80;12.65;;;7.40;99.90;;;;;;5109406;28;20028;-58
2024/01/07 09:43:00;;;;;;;72.53;11.45;;;7.40;99.90;;;;;;5109801;28;20038;-58
2024/01/07 09:45:25;;;;;;;81.45;12.13;;;7.40;99.90;;;;;;5100652;28;20503;-58
2024/01/07 09:47:51;;;;;;;93.22;12.60;;;7.40;99.90;;;;;;5122605;28;20086;-58
2024/01/07 09:50:17;;;;;;;99.57;15.05;;;7.50;99.90;;;;;;5123255;27;20040;-58
2024/01/07 09:52:45;;;;;;;86.97;12.90;;;7.50;99.90;;;;;;5080336;28;20031;-58
2024/01/07 09:55:14;;;;;;;92.05;12.32;;;7.50;99.90;;;;;;5085576;28;20036;-58
2024/01/07 09:57:40;;;;;;;74.03;12.20;;;7.50;99.90;;;;;;5100141;28;20051;-59
2024/01/07 10:00:07;;;;;;;91.55;14.18;;;7.50;99.90;;;;;;5088749;28;20037;-58
2024/01/07 10:02:33;;;;;;;104.13;13.18;;;7.50;99.90;;;;;;5105220;28;20052;-58
2024/01/07 10:04:59;;;;;;;98.57;14.13;;;7.50;99.90;;;;;;5108671;28;20024;-58
2024/01/07 10:07:25;;;;;;;97.95;13.75;;;7.50;99.90;;;;;;5112459;28;20032;-58
2024/01/07 10:09:53;;;;;;;109.78;14.27;;;7.60;99.90;;;;;;5106434;28;20032;-58
2024/01/07 10:12:22;;;;;;;127.05;14.82;;;7.60;99.90;;;;;;5107643;28;20039;-58
2024/01/07 10:14:47;;;;;;;122.07;15.35;;;7.60;99.90;;;;;;5090084;28;20054;-58
2024/01/07 10:17:16;;;;;;;106.85;16.15;;;7.70;99.90;;;;;;5112940;28;20075;-58
2024/01/07 10:19:48;;;;;;;294.05;30.33;;;7.70;99.90;;;;;;5110834;28;20024;-57
2024/01/07 10:22:14;;;;;;;111.30;14.25;;;7.70;99.90;;;;;;5111868;28;20447;-58
2024/01/07 10:24:40;;;;;;;95.03;14.70;;;7.70;99.90;;;;;;5108523;28;20020;-58
2024/01/07 10:27:06;;;;;;;113.88;16.90;;;7.80;99.90;;;;;;5105875;28;20016;-58
2024/01/07 10:29:32;;;;;;;107.53;15.43;;;7.70;99.90;;;;;;5108152;28;20135;-58
2024/01/07 10:32:05;;;;;;;119.57;16.63;;;7.80;99.90;;;;;;5098471;28;20020;-58
2024/01/07 10:34:34;;;;;;;95.18;15.85;;;7.80;99.90;;;;;;5092815;28;20032;-58
2024/01/07 10:37:01;;;;;;;116.65;15.13;;;7.80;99.90;;;;;;5099130;28;20024;-58
2024/01/07 10:39:27;;;;;;;122.82;15.88;;;7.80;99.90;;;;;;5089357;28;20032;-58
2024/01/07 10:41:57;;;;;;;117.38;15.70;;;7.80;99.90;;;;;;5107235;28;20099;-58
2024/01/07 10:44:22;;;;;;;349.88;31.60;;;7.80;99.90;;;;;;5095263;28;20020;-58
2024/01/07 10:46:48;;;;;;;157.90;21.27;;;7.90;99.90;;;;;;5090549;28;20111;-58
2024/01/07 10:49:22;;;;;;;142.27;19.77;;;7.90;99.90;;;;;;5106496;28;20032;-58
2024/01/07 10:52:07;;;;;;;132.55;18.27;;;7.90;99.90;;;;;;5094128;28;20039;-58
2024/01/07 10:54:34;;;;;;;151.55;19.00;;;7.90;99.90;;;;;;5107044;28;20028;-58
2024/01/07 10:57:14;;;;;;;151.55;18.23;;;7.90;99.90;;;;;;5084116;28;20028;-58
2024/01/07 10:59:40;;;;;;;139.98;18.77;;;7.90;99.90;;;;;;5106942;28;20036;-59
2024/01/07 11:02:06;;;;;;;143.45;18.33;;;8.00;99.90;;;;;;5106264;28;20054;-58
2024/01/07 11:04:51;;;;;;;122.28;16.75;;;8.00;99.90;;;;;;5107806;28;20036;-58
2024/01/07 11:07:23;;;;;;;147.40;16.97;;;8.00;99.90;;;;;;5106931;28;20384;-58
2024/01/07 11:10:17;;;;;;;169.90;19.75;;;8.00;99.90;;;;;;5123030;28;20056;-58
2024/01/07 11:12:43;;;;;;;200.13;20.80;;;8.00;99.90;;;;;;5104143;28;20392;-58
2024/01/07 11:15:09;;;;;;;283.33;26.77;;;8.00;99.90;;;;;;5107908;28;20028;-58
2024/01/07 11:17:37;;;;;;;180.98;21.13;;;8.00;99.90;;;;;;5111433;28;20028;-58
2024/01/07 11:20:08;;;;;;;150.00;17.15;;;8.00;99.90;;;;;;5123610;28;20027;-58
2024/01/07 11:22:33;;;;;;;161.80;19.20;;;8.00;99.90;;;;;;5097294;28;20482;-58
2024/01/07 11:25:00;;;;;;;137.55;18.15;;;8.00;99.90;;;;;;5107161;28;20043;-58
2024/01/07 11:27:32;;;;;;;132.38;18.40;;;8.10;99.90;;;;;;5087856;28;20057;-58
2024/01/07 11:29:58;;;;;;;157.15;18.88;;;8.10;99.90;;;;;;5106743;28;20028;-59
2024/01/07 11:32:28;;;;;;;140.27;16.73;;;8.10;99.90;;;;;;5106031;28;20020;-60
2024/01/07 11:34:56;;;;;;;135.98;17.77;;;8.10;99.90;;;;;;5094168;28;20090;-58
2024/01/07 11:37:22;;;;;;;209.00;22.42;;;8.10;99.90;;;;;;5107926;28;20028;-58
2024/01/07 11:39:49;;;;;;;181.98;20.23;;;8.10;99.90;;;;;;5108980;28;20039;-58
2024/01/07 11:42:15;;;;;;;171.73;20.92;;;8.10;99.90;;;;;;5110447;28;20040;-58
2024/01/07 11:44:48;;;;;;;169.27;23.35;;;8.20;99.90;;;;;;5090979;28;20498;-58
2024/01/07 11:47:17;;;;;;;161.05;21.10;;;8.20;99.90;;;;;;5107304;28;20296;-58
2024/01/07 11:49:42;;;;;;;207.88;25.92;;;8.20;99.90;;;;;;5123969;28;20040;-58
2024/01/07 11:52:10;;;;;;;218.90;23.23;;;8.20;99.90;;;;;;5106702;28;20094;-58
2024/01/07 11:54:36;;;;;;;189.10;21.40;;;8.20;99.90;;;;;;5104909;28;20528;-59
2024/01/07 11:57:02;;;;;;;201.30;24.42;;;8.30;99.90;;;;;;5083464;28;20040;-58
2024/01/07 11:59:29;;;;;;;191.15;22.40;;;8.30;99.90;;;;;;5104106;28;20043;-59
2024/01/07 12:01:55;;;;;;;391.63;39.38;;;8.20;99.90;;;;;;5106131;28;20098;-59
2024/01/07 12:04:21;;;;;;;170.88;23.42;;;8.30;99.90;;;;;;5116834;28;20031;-58
2024/01/07 12:06:47;;;;;;;216.50;24.38;;;8.30;99.90;;;;;;5105888;28;20031;-58
2024/01/07 12:09:13;;;;;;;198.60;26.25;;;8.30;99.90;;;;;;5091559;28;20035;-58
2024/01/07 12:11:40;;;;;;;194.45;23.98;;;8.40;99.90;;;;;;5106701;28;20016;-58
2024/01/07 12:14:07;;;;;;;196.80;26.08;;;8.40;99.90;;;;;;5091339;28;20028;-58
2024/01/07 12:16:32;;;;;;;176.40;22.02;;;8.40;99.90;;;;;;5102838;28;20020;-58
2024/01/07 12:18:58;;;;;;;187.27;23.08;;;8.40;99.90;;;;;;5104519;28;20058;-58
2024/01/07 12:21:24;;;;;;;215.57;25.95;;;8.50;99.90;;;;;;5105039;28;20060;-58
2024/01/07 12:23:50;;;;;;;241.60;27.05;;;8.40;99.90;;;;;;5086557;28;20054;-58
2024/01/07 12:26:16;;;;;;;268.13;25.10;;;8.50;99.90;;;;;;5102461;28;20069;-58
2024/01/07 12:28:42;;;;;;;237.38;24.92;;;8.50;99.90;;;;;;5105620;28;20118;-58
2024/01/07 12:31:07;;;;;;;261.23;27.58;;;8.50;99.90;;;;;;5088615;28;20107;-58
2024/01/07 12:33:33;;;;;;;232.77;27.40;;;8.60;99.90;;;;;;5104898;28;20092;-58
2024/01/07 12:36:00;;;;;;;256.48;30.95;;;8.60;99.90;;;;;;5104497;28;20028;-57
2024/01/07 12:38:26;;;;;;;285.02;35.22;;;8.60;99.90;;;;;;5105623;28;20040;-58